Time;durP1;ratioP1;P1;durP2;ratioP2;P2;SDS_P1;SDS_P2;PMS_P1;PMS_P2;Temp;Humidity;BMP_temperature;BMP_pressure;BME280_temperature;BME280_humidity;BME280_pressure;Samples;Min_cycle;Max_cycle;Signal;HPM_P1;HPM_P2
2023/06/06 00:02:09;;;;;;;;;;;;;;;-144.98;100.00;62585.19;4863863;29;19923;-79
2023/06/06 00:05:17;;;;;;;;;;;;;;;-144.98;100.00;62585.19;4853676;29;19923;-80
2023/06/06 00:08:23;;;;;;;;;;;;;;;-144.98;100.00;62585.19;4864299;29;20003;-80
2023/06/06 00:11:28;;;;;;;;;;;;;;;-144.98;100.00;62585.19;4864269;29;20360;-79
2023/06/06 00:14:32;;;;;;;;;;;;;;;-144.98;100.00;62585.19;4852684;29;19926;-79
2023/06/06 00:17:36;;;;;;;;;;;;;;;-144.98;100.00;62585.19;4864044;29;19923;-80
2023/06/06 00:20:40;;;;;;;;;;;;;;;-144.98;100.00;62585.19;4863946;29;20015;-80
2023/06/06 00:23:45;;;;;;;;;;;;;;;-144.98;100.00;62585.19;4863954;29;19939;-80
2023/06/06 00:26:48;;;;;;;;;;;;;;;-144.98;100.00;62585.19;4864157;29;20064;-80
2023/06/06 00:29:54;;;;;;;;;;;;;;;-144.98;100.00;62585.19;4863776;29;19964;-80
2023/06/06 00:32:57;;;;;;;;;;;;;;;-144.98;100.00;62585.19;4852378;29;19930;-80
2023/06/06 00:36:01;;;;;;;;;;;;;;;-144.98;100.00;62585.19;4863714;29;19927;-81
2023/06/06 00:39:04;;;;;;;;;;;;;;;-144.98;100.00;62585.19;4863905;29;19923;-81
2023/06/06 00:42:07;;;;;;;;;;;;;;;-144.98;100.00;62585.19;4863628;29;19941;-82
2023/06/06 00:45:11;;;;;;;;;;;;;;;-144.98;100.00;62585.19;4863532;29;19923;-81
2023/06/06 00:48:15;;;;;;;;;;;;;;;-144.98;100.00;62585.19;4852024;29;19938;-83
2023/06/06 00:51:18;;;;;;;;;;;;;;;-144.98;100.00;62585.19;4841650;29;19976;-83
2023/06/06 00:54:22;;;;;;;;;;;;;;;-144.98;100.00;62585.19;4863378;29;20399;-82
2023/06/06 00:57:26;;;;;;;;;;;;;;;-144.98;100.00;62585.19;4863433;29;19923;-82
2023/06/06 01:00:32;;;;;;;;;;;;;;;-144.98;100.00;62585.19;4851720;29;20392;-81
2023/06/06 01:03:35;;;;;;;;;;;;;;;-144.98;100.00;62585.19;4863279;29;19922;-81
2023/06/06 01:06:39;;;;;;;;;;;;;;;-144.98;100.00;62585.19;4863237;29;19972;-81
2023/06/06 01:09:41;;;;;;;;;;;;;;;-144.98;100.00;62585.19;4863014;29;19927;-81
2023/06/06 01:12:55;;;;;;;;;;;;;;;-144.98;100.00;62585.19;4850511;29;19923;-81
2023/06/06 01:16:01;;;;;;;;;;;;;;;-144.98;100.00;62585.19;4862947;29;20007;-82
2023/06/06 01:19:09;;;;;;;;;;;;;;;-144.98;100.00;62585.19;4862994;29;19923;-82
2023/06/06 01:22:12;;;;;;;;;;;;;;;-144.98;100.00;62585.19;4841061;29;19923;-82
2023/06/06 01:25:19;;;;;;;;;;;;;;;-144.98;100.00;62585.19;4862839;29;19939;-82
2023/06/06 01:28:23;;;;;;;;;;;;;;;-144.98;100.00;62585.19;4862813;29;19923;-82
2023/06/06 01:31:30;;;;;;;;;;;;;;;-144.98;100.00;62585.19;4851290;29;19923;-81
2023/06/06 01:34:35;;;;;;;;;;;;;;;-144.98;100.00;62585.19;4862675;29;19927;-81
2023/06/06 01:37:52;;;;;;;;;;;;;;;-144.98;100.00;62585.19;4862838;29;19922;-81
2023/06/06 01:40:57;;;;;;;;;;;;;;;-144.98;100.00;62585.19;4862606;29;19923;-82
2023/06/06 01:44:01;;;;;;;;;;;;;;;-144.98;100.00;62585.19;4862790;29;19987;-81
2023/06/06 01:47:04;;;;;;;;;;;;;;;-144.98;100.00;62585.19;4850998;29;19923;-82
2023/06/06 01:50:08;;;;;;;;;;;;;;;-144.98;100.00;62585.19;4862783;29;19926;-82
2023/06/06 01:53:11;;;;;;;;;;;;;;;-144.98;100.00;62585.19;4862419;29;20289;-80
2023/06/06 01:56:15;;;;;;;;;;;;;;;-144.98;100.00;62585.19;4850873;29;20293;-80
2023/06/06 01:59:20;;;;;;;;;;;;;;;-144.98;100.00;62585.19;4850733;29;19942;-80
2023/06/06 02:02:24;;;;;;;;;;;;;;;-144.98;100.00;62585.19;4850824;29;20403;-80
2023/06/06 02:05:27;;;;;;;;;;;;;;;-144.98;100.00;62585.19;4850978;29;19927;-80
2023/06/06 02:08:30;;;;;;;;;;;;;;;-144.98;100.00;62585.19;4849890;29;20388;-80
2023/06/06 02:11:34;;;;;;;;;;;;;;;-144.98;100.00;62585.19;4850554;29;19926;-80
2023/06/06 02:14:37;;;;;;;;;;;;;;;-144.98;100.00;62585.19;4850507;29;19927;-81
2023/06/06 02:17:41;;;;;;;;;;;;;;;-144.98;100.00;62585.19;4861936;29;19923;-80
2023/06/06 02:20:45;;;;;;;;;;;;;;;-144.98;100.00;62585.19;4862230;29;20015;-81
2023/06/06 02:23:48;;;;;;;;;;;;;;;-144.98;100.00;62585.19;4861562;29;19922;-81
2023/06/06 02:26:53;;;;;;;;;;;;;;;-144.98;100.00;62585.19;4861805;29;19923;-80
2023/06/06 02:29:56;;;;;;;;;;;;;;;-144.98;100.00;62585.19;4850159;29;20018;-80
2023/06/06 02:32:59;;;;;;;;;;;;;;;-144.98;100.00;62585.19;4850341;29;19923;-81
2023/06/06 02:36:02;;;;;;;;;;;;;;;-144.98;100.00;62585.19;4861569;29;20361;-81
2023/06/06 02:39:05;;;;;;;;;;;;;;;-144.98;100.00;62585.19;4850166;29;19923;-81
2023/06/06 02:42:08;;;;;;;;;;;;;;;-144.98;100.00;62585.19;4861885;29;19923;-81
2023/06/06 02:45:11;;;;;;;;;;;;;;;-144.98;100.00;62585.19;4861536;29;20341;-81
2023/06/06 02:48:15;;;;;;;;;;;;;;;-144.98;100.00;62585.19;4861795;29;19923;-81
2023/06/06 02:51:22;;;;;;;;;;;;;;;-144.98;100.00;62585.19;4849881;29;19927;-82
2023/06/06 02:54:25;;;;;;;;;;;;;;;-144.98;100.00;62585.19;4850137;29;20376;-82
2023/06/06 02:57:30;;;;;;;;;;;;;;;-144.98;100.00;62585.19;4850165;29;20375;-82
2023/06/06 03:00:33;;;;;;;;;;;;;;;-144.98;100.00;62585.19;4849711;29;19923;-82
2023/06/06 03:03:38;;;;;;;;;;;;;;;-144.98;100.00;62585.19;4849844;29;20292;-82
2023/06/06 03:06:42;;;;;;;;;;;;;;;-144.98;100.00;62585.19;4849721;29;19971;-82
2023/06/06 03:09:46;;;;;;;;;;;;;;;-144.98;100.00;62585.19;4849764;29;19976;-81
2023/06/06 03:12:52;;;;;;;;;;;;;;;-144.98;100.00;62585.19;4849648;29;20284;-81
2023/06/06 03:15:56;;;;;;;;;;;;;;;-144.98;100.00;62585.19;4849785;29;19927;-81
2023/06/06 03:19:00;;;;;;;;;;;;;;;-144.98;100.00;62585.19;4849706;29;20015;-81
2023/06/06 03:22:04;;;;;;;;;;;;;;;-144.98;100.00;62585.19;4849666;29;19961;-81
2023/06/06 03:25:13;;;;;;;;;;;;;;;-144.98;100.00;62585.19;4849606;29;20011;-80
2023/06/06 03:28:18;;;;;;;;;;;;;;;-144.98;100.00;62585.19;4849518;29;19923;-81
2023/06/06 03:31:23;;;;;;;;;;;;;;;-144.98;100.00;62585.19;4849589;29;20011;-82
2023/06/06 03:34:27;;;;;;;;;;;;;;;-144.98;100.00;62585.19;4849475;29;19976;-82
2023/06/06 03:37:32;;;;;;;;;;;;;;;-144.98;100.00;62585.19;4853342;29;20289;-81
2023/06/06 03:40:37;;;;;;;;;;;;;;;-144.98;100.00;62585.19;4853341;29;19965;-81
2023/06/06 03:43:41;;;;;;;;;;;;;;;-144.98;100.00;62585.19;4864702;29;19923;-81
2023/06/06 03:46:45;;;;;;;;;;;;;;;-144.98;100.00;62585.19;4853106;29;19923;-81
2023/06/06 03:49:48;;;;;;;;;;;;;;;-144.98;100.00;62585.19;4852974;29;19923;-80
2023/06/06 03:52:52;;;;;;;;;;;;;;;-144.98;100.00;62585.19;4864562;29;19958;-80
2023/06/06 03:55:58;;;;;;;;;;;;;;;-144.98;100.00;62585.19;4852970;29;19933;-79
2023/06/06 03:59:02;;;;;;;;;;;;;;;-144.98;100.00;62585.19;4852842;29;19922;-79
2023/06/06 04:02:06;;;;;;;;;;;;;;;-144.98;100.00;62585.19;4864435;29;20384;-84
2023/06/06 04:05:11;;;;;;;;;;;;;;;-144.98;100.00;62585.19;4864570;29;20052;-86
2023/06/06 04:08:19;;;;;;;;;;;;;;;-144.98;100.00;62585.19;4864937;29;19926;-87
2023/06/06 04:11:25;;;;;;;;;;;;;;;-144.98;100.00;62585.19;4852799;29;19966;-88
2023/06/06 04:14:33;;;;;;;;;;;;;;;-144.98;100.00;62585.19;4853149;29;20372;-84
2023/06/06 04:17:36;;;;;;;;;;;;;;;-144.98;100.00;62585.19;4852670;29;19973;-84
2023/06/06 04:29:52;;;;;;;;;;;;;;;-144.98;100.00;62585.19;4864950;29;20011;-90
2023/06/06 04:57:01;;;;;;;;;;;;;;;-144.98;100.00;62585.19;4863710;29;19927;-85
2023/06/06 05:28:24;;;;;;;;;;;;;;;-144.98;100.00;62585.19;4863456;29;19976;-80
2023/06/06 05:31:59;;;;;;;;;;;;;;;-144.98;100.00;62585.19;4862914;29;19932;-86
2023/06/06 05:35:06;;;;;;;;;;;;;;;-144.98;100.00;62585.19;4862805;29;19922;-73
2023/06/06 06:20:33;;;;;;;;;;;;;;;-144.98;100.00;62585.19;5874762;23;19910;-90
2023/06/06 06:24:15;;;;;;;;;;;;;;;-144.98;100.00;62585.19;4862375;29;20033;-90
2023/06/06 06:27:25;;;;;;;;;;;;;;;-144.98;100.00;62585.19;4832634;29;20472;-86
2023/06/06 06:53:37;;;;;;;;;;;;;;;-144.98;100.00;62585.19;4841413;29;20360;-83
2023/06/06 06:56:45;;;;;;;;;;;;;;;-144.98;100.00;62585.19;4842959;29;19927;-83
2023/06/06 07:10:49;;;;;;;;;;;;;;;-144.98;100.00;62585.19;4856285;29;19922;-83
2023/06/06 07:13:52;;;;;;;;;;;;;;;-144.98;100.00;62585.19;4879572;29;19923;-67
2023/06/06 07:16:55;;;;;;;;;;;;;;;-144.98;100.00;62585.19;4879602;29;19923;-67
2023/06/06 07:19:58;;;;;;;;;;;;;;;-144.98;100.00;62585.19;4879974;29;19990;-67
2023/06/06 07:23:02;;;;;;;;;;;;;;;-144.98;100.00;62585.19;4879560;29;20379;-67
2023/06/06 07:26:09;;;;;;;;;;;;;;;-144.98;100.00;62585.19;4879598;29;20432;-67
2023/06/06 07:29:13;;;;;;;;;;;;;;;-144.98;100.00;62585.19;4879848;29;19922;-67
2023/06/06 07:32:16;;;;;;;;;;;;;;;-144.98;100.00;62585.19;4879537;29;20420;-67
2023/06/06 07:35:19;;;;;;;;;;;;;;;-144.98;100.00;62585.19;4879381;29;20281;-67
2023/06/06 07:38:22;;;;;;;;;;;;;;;-144.98;100.00;62585.19;4879413;29;19923;-67
2023/06/06 07:41:34;;;;;;;;;;;;;;;-144.98;100.00;62585.19;4879751;29;20019;-67
2023/06/06 07:44:40;;;;;;;;;;;;;;;-144.98;100.00;62585.19;4879268;29;19932;-81
2023/06/06 07:47:47;;;;;;;;;;;;;;;-144.98;100.00;62585.19;4867908;29;20010;-80
2023/06/06 07:50:50;;;;;;;;;;;;;;;-144.98;100.00;62585.19;4879378;29;19963;-81
2023/06/06 07:53:54;;;;;;;;;;;;;;;-144.98;100.00;62585.19;4879549;29;19927;-82
2023/06/06 07:56:59;;;;;;;;;;;;;;;-144.98;100.00;62585.19;4879325;29;19986;-77
2023/06/06 08:00:14;;;;;;;;;;;;;;;-144.98;100.00;62585.19;4878993;29;19971;-79
2023/06/06 08:03:18;;;;;;;;;;;;;;;-144.98;100.00;62585.19;4879018;29;20010;-76
2023/06/06 08:06:23;;;;;;;;;;;;;;;-144.98;100.00;62585.19;4867482;29;20304;-86
2023/06/06 08:09:26;;;;;;;;;;;;;;;-144.98;100.00;62585.19;4879442;29;20332;-80
2023/06/06 08:12:29;;;;;;;;;;;;;;;-144.98;100.00;62585.19;4879159;29;19927;-79
2023/06/06 08:15:32;;;;;;;;;;;;;;;-144.98;100.00;62585.19;4879090;29;19976;-83
2023/06/06 08:18:38;;;;;;;;;;;;;;;-144.98;100.00;62585.19;4879221;29;19923;-78
2023/06/06 08:21:44;;;;;;;;;;;;;;;-144.98;100.00;62585.19;4868601;29;19963;-82
2023/06/06 08:24:50;;;;;;;;;;;;;;;-144.98;100.00;62585.19;4882716;29;19971;-78
2023/06/06 08:27:54;;;;;;;;;;;;;;;-144.98;100.00;62585.19;4882505;29;19964;-79
2023/06/06 08:30:58;;;;;;;;;;;;;;;-144.98;100.00;62585.19;4882207;29;19938;-82
2023/06/06 08:34:03;;;;;;;;;;;;;;;-144.98;100.00;62585.19;4882336;29;20035;-82
2023/06/06 08:37:06;;;;;;;;;;;;;;;-144.98;100.00;62585.19;4882372;29;19938;-83
2023/06/06 08:40:11;;;;;;;;;;;;;;;-144.98;100.00;62585.19;4882288;29;20364;-79
2023/06/06 08:43:17;;;;;;;;;;;;;;;-144.98;100.00;62585.19;4882168;29;19963;-79
2023/06/06 08:46:23;;;;;;;;;;;;;;;-144.98;100.00;62585.19;4882498;29;19922;-80
2023/06/06 08:49:28;;;;;;;;;;;;;;;-144.98;100.00;62585.19;4882158;29;19922;-75
2023/06/06 08:52:34;;;;;;;;;;;;;;;-144.98;100.00;62585.19;4882055;29;19922;-78
2023/06/06 08:55:38;;;;;;;;;;;;;;;-144.98;100.00;62585.19;4881938;29;20404;-79
2023/06/06 08:58:43;;;;;;;;;;;;;;;-144.98;100.00;62585.19;4881898;29;19923;-79
2023/06/06 09:01:53;;;;;;;;;;;;;;;-144.98;100.00;62585.19;4881849;29;20311;-78
2023/06/06 09:04:56;;;;;;;;;;;;;;;-144.98;100.00;62585.19;4881588;29;19976;-66
2023/06/06 09:08:01;;;;;;;;;;;;;;;-144.98;100.00;62585.19;4881702;29;20388;-66
2023/06/06 09:11:04;;;;;;;;;;;;;;;-144.98;100.00;62585.19;4881698;29;19926;-65
2023/06/06 09:14:07;;;;;;;;;;;;;;;-144.98;100.00;62585.19;4881830;29;19926;-65
2023/06/06 09:17:15;;;;;;;;;;;;;;;-144.98;100.00;62585.19;4881596;29;19923;-65
2023/06/06 09:20:18;;;;;;;;;;;;;;;-144.98;100.00;62585.19;4881574;29;19970;-79
2023/06/06 09:23:21;;;;;;;;;;;;;;;-144.98;100.00;62585.19;4881516;29;20442;-78
2023/06/06 09:26:25;;;;;;;;;;;;;;;-144.98;100.00;62585.19;4881238;29;19963;-76
2023/06/06 09:29:37;;;;;;;;;;;;;;;-144.98;100.00;62585.19;4881306;29;19940;-76
2023/06/06 09:32:42;;;;;;;;;;;;;;;-144.98;100.00;62585.19;4880821;29;19926;-76
2023/06/06 09:35:46;;;;;;;;;;;;;;;-144.98;100.00;62585.19;4880502;29;19926;-79
2023/06/06 09:38:51;;;;;;;;;;;;;;;-144.98;100.00;62585.19;4881561;29;19922;-77
2023/06/06 09:41:55;;;;;;;;;;;;;;;-144.98;100.00;62585.19;4869677;29;19926;-76
2023/06/06 09:44:58;;;;;;;;;;;;;;;-144.98;100.00;62585.19;4881089;29;19922;-75
2023/06/06 09:48:01;;;;;;;;;;;;;;;-144.98;100.00;62585.19;4881200;29;20280;-76
2023/06/06 09:51:04;;;;;;;;;;;;;;;-144.98;100.00;62585.19;4869620;29;20388;-76
2023/06/06 09:54:08;;;;;;;;;;;;;;;-144.98;100.00;62585.19;4880961;29;20425;-76
2023/06/06 09:57:13;;;;;;;;;;;;;;;-144.98;100.00;62585.19;4868297;29;19922;-76
2023/06/06 10:00:18;;;;;;;;;;;;;;;-144.98;100.00;62585.19;4880318;29;20018;-76
2023/06/06 10:03:22;;;;;;;;;;;;;;;-144.98;100.00;62585.19;4880029;29;19922;-76
2023/06/06 10:06:33;;;;;;;;;;;;;;;-144.98;100.00;62585.19;4880557;29;19926;-75
2023/06/06 10:09:37;;;;;;;;;;;;;;;-144.98;100.00;62585.19;4881127;29;20334;-75
2023/06/06 10:12:43;;;;;;;;;;;;;;;-144.98;100.00;62585.19;4880791;29;19922;-77
2023/06/06 10:15:48;;;;;;;;;;;;;;;-144.98;100.00;62585.19;4880555;29;20432;-77
2023/06/06 10:18:52;;;;;;;;;;;;;;;-144.98;100.00;62585.19;4880576;29;19944;-76
2023/06/06 10:21:56;;;;;;;;;;;;;;;-144.98;100.00;62585.19;4880640;29;19923;-76
2023/06/06 10:24:59;;;;;;;;;;;;;;;-144.98;100.00;62585.19;4880491;29;19923;-76
2023/06/06 10:28:21;;;;;;;;;;;;;;;-144.98;100.00;62585.19;4880897;29;20031;-78
2023/06/06 10:31:30;;;;;;;;;;;;;;;-144.98;100.00;62585.19;4880561;29;19975;-76
2023/06/06 10:34:35;;;;;;;;;;;;;;;-144.98;100.00;62585.19;4880510;29;19926;-76
2023/06/06 10:37:39;;;;;;;;;;;;;;;-144.98;100.00;62585.19;4880636;29;19948;-77
2023/06/06 10:40:43;;;;;;;;;;;;;;;-144.98;100.00;62585.19;4869071;29;19971;-76
2023/06/06 10:43:46;;;;;;;;;;;;;;;-144.98;100.00;62585.19;4880250;29;19923;-78
2023/06/06 10:46:51;;;;;;;;;;;;;;;-144.98;100.00;62585.19;4868608;29;20296;-77
2023/06/06 10:50:10;;;;;;;;;;;;;;;-144.98;100.00;62585.19;4880340;29;19923;-79
2023/06/06 10:53:17;;;;;;;;;;;;;;;-144.98;100.00;62585.19;4880055;29;20004;-78
2023/06/06 10:56:42;;;;;;;;;;;;;;;-144.98;100.00;62585.19;4879939;29;19927;-78
2023/06/06 10:59:47;;;;;;;;;;;;;;;-144.98;100.00;62585.19;4879891;29;20051;-78
2023/06/06 11:02:50;;;;;;;;;;;;;;;-144.98;100.00;62585.19;4879993;29;20387;-77
2023/06/06 11:06:02;;;;;;;;;;;;;;;-144.98;100.00;62585.19;4879626;29;19927;-76
2023/06/06 11:09:16;;;;;;;;;;;;;;;-144.98;100.00;62585.19;4879850;29;19923;-76
2023/06/06 11:12:19;;;;;;;;;;;;;;;-144.98;100.00;62585.19;4879801;29;19971;-76
2023/06/06 11:15:26;;;;;;;;;;;;;;;-144.98;100.00;62585.19;4879844;29;19975;-77
2023/06/06 11:18:49;;;;;;;;;;;;;;;-144.98;100.00;62585.19;4879444;29;19923;-76
2023/06/06 11:21:58;;;;;;;;;;;;;;;-144.98;100.00;62585.19;4879550;29;19922;-77
2023/06/06 11:25:02;;;;;;;;;;;;;;;-144.98;100.00;62585.19;4879529;29;20427;-76
2023/06/06 11:28:06;;;;;;;;;;;;;;;-144.98;100.00;62585.19;4879382;29;19923;-78
2023/06/06 11:31:10;;;;;;;;;;;;;;;-144.98;100.00;62585.19;4879480;29;19932;-76
2023/06/06 11:34:13;;;;;;;;;;;;;;;-144.98;100.00;62585.19;4878267;29;20059;-79
2023/06/06 11:37:17;;;;;;;;;;;;;;;-144.98;100.00;62585.19;4877537;29;19976;-77
2023/06/06 11:40:20;;;;;;;;;;;;;;;-144.98;100.00;62585.19;4877458;29;19922;-80
2023/06/06 11:43:23;;;;;;;;;;;;;;;-144.98;100.00;62585.19;4866728;29;19922;-77
2023/06/06 11:46:29;;;;;;;;;;;;;;;-144.98;100.00;62585.19;4878496;29;20345;-76
2023/06/06 11:49:45;;;;;;;;;;;;;;;-144.98;100.00;62585.19;4878710;29;19922;-72
2023/06/06 11:52:49;;;;;;;;;;;;;;;-144.98;100.00;62585.19;4867857;29;19940;-75
2023/06/06 11:55:53;;;;;;;;;;;;;;;-144.98;100.00;62585.19;4867779;29;19987;-76
2023/06/06 11:58:56;;;;;;;;;;;;;;;-144.98;100.00;62585.19;4883009;29;19923;-76
2023/06/06 12:02:00;;;;;;;;;;;;;;;-144.98;100.00;62585.19;4882993;29;19939;-76
2023/06/06 12:05:04;;;;;;;;;;;;;;;-144.98;100.00;62585.19;4871355;29;19927;-76
2023/06/06 12:08:07;;;;;;;;;;;;;;;-144.98;100.00;62585.19;4882900;29;19923;-72
2023/06/06 12:11:21;;;;;;;;;;;;;;;-144.98;100.00;62585.19;4882786;29;19923;-75
2023/06/06 12:14:25;;;;;;;;;;;;;;;-144.98;100.00;62585.19;4882628;29;19930;-76
2023/06/06 12:17:29;;;;;;;;;;;;;;;-144.98;100.00;62585.19;4882682;29;19943;-71
2023/06/06 12:20:32;;;;;;;;;;;;;;;-144.98;100.00;62585.19;4882933;29;19962;-69
2023/06/06 12:23:35;;;;;;;;;;;;;;;-144.98;100.00;62585.19;4882549;29;19927;-71
2023/06/06 12:26:51;;;;;;;;;;;;;;;-144.98;100.00;62585.19;4882568;29;20428;-73
2023/06/06 12:29:55;;;;;;;;;;;;;;;-144.98;100.00;62585.19;4882738;29;19927;-72
2023/06/06 12:33:02;;;;;;;;;;;;;;;-144.98;100.00;62585.19;4882323;29;19922;-76
2023/06/06 12:36:19;;;;;;;;;;;;;;;-144.98;100.00;62585.19;4882271;29;19926;-72
2023/06/06 12:39:23;;;;;;;;;;;;;;;-144.98;100.00;62585.19;4882303;29;19972;-71
2023/06/06 12:42:26;;;;;;;;;;;;;;;-144.98;100.00;62585.19;4882267;29;20300;-71
2023/06/06 12:45:29;;;;;;;;;;;;;;;-144.98;100.00;62585.19;4882274;29;19971;-74
2023/06/06 12:48:32;;;;;;;;;;;;;;;-144.98;100.00;62585.19;4882184;29;19923;-72
2023/06/06 12:51:38;;;;;;;;;;;;;;;-144.98;100.00;62585.19;4882164;29;19923;-73
2023/06/06 12:54:41;;;;;;;;;;;;;;;-144.98;100.00;62585.19;4881966;29;20407;-72
2023/06/06 12:57:45;;;;;;;;;;;;;;;-144.98;100.00;62585.19;4881980;29;19958;-71
2023/06/06 13:00:48;;;;;;;;;;;;;;;-144.98;100.00;62585.19;4881887;29;19922;-72
2023/06/06 13:03:52;;;;;;;;;;;;;;;-144.98;100.00;62585.19;4882213;29;19922;-72
2023/06/06 13:06:55;;;;;;;;;;;;;;;-144.98;100.00;62585.19;4881791;29;19927;-72
2023/06/06 13:09:59;;;;;;;;;;;;;;;-144.98;100.00;62585.19;4881681;29;20338;-72
2023/06/06 13:13:02;;;;;;;;;;;;;;;-144.98;100.00;62585.19;4870164;29;20341;-71
2023/06/06 13:16:05;;;;;;;;;;;;;;;-144.98;100.00;62585.19;4881609;29;20340;-73
2023/06/06 13:19:10;;;;;;;;;;;;;;;-144.98;100.00;62585.19;4881608;29;20086;-73
2023/06/06 13:22:16;;;;;;;;;;;;;;;-144.98;100.00;62585.19;4881457;29;19923;-72
2023/06/06 13:25:20;;;;;;;;;;;;;;;-144.98;100.00;62585.19;4881517;29;19922;-74
2023/06/06 13:28:23;;;;;;;;;;;;;;;-144.98;100.00;62585.19;4881454;29;19923;-74
2023/06/06 13:31:27;;;;;;;;;;;;;;;-144.98;100.00;62585.19;4881373;29;19999;-73
2023/06/06 13:34:30;;;;;;;;;;;;;;;-144.98;100.00;62585.19;4881261;29;20046;-79
2023/06/06 13:37:33;;;;;;;;;;;;;;;-144.98;100.00;62585.19;4869759;29;19958;-73
2023/06/06 13:40:37;;;;;;;;;;;;;;;-144.98;100.00;62585.19;4881235;29;20010;-74
2023/06/06 13:44:05;;;;;;;;;;;;;;;-144.98;100.00;62585.19;4881380;29;19922;-86
2023/06/06 13:47:08;;;;;;;;;;;;;;;-144.98;100.00;62585.19;4881102;29;19988;-72
2023/06/06 13:50:11;;;;;;;;;;;;;;;-144.98;100.00;62585.19;4881005;29;19988;-74
2023/06/06 13:53:20;;;;;;;;;;;;;;;-144.98;100.00;62585.19;4880984;29;19922;-72
2023/06/06 13:56:25;;;;;;;;;;;;;;;-144.98;100.00;62585.19;4880978;29;19927;-71
2023/06/06 13:59:28;;;;;;;;;;;;;;;-144.98;100.00;62585.19;4880852;29;19962;-73
2023/06/06 14:02:31;;;;;;;;;;;;;;;-144.98;100.00;62585.19;4880802;29;19922;-73
2023/06/06 14:05:34;;;;;;;;;;;;;;;-144.98;100.00;62585.19;4880657;29;19946;-73
2023/06/06 14:08:38;;;;;;;;;;;;;;;-144.98;100.00;62585.19;4880721;29;20319;-73
2023/06/06 14:11:46;;;;;;;;;;;;;;;-144.98;100.00;62585.19;4880697;29;20399;-72
2023/06/06 14:14:53;;;;;;;;;;;;;;;-144.98;100.00;62585.19;4858952;29;19930;-72
2023/06/06 14:17:57;;;;;;;;;;;;;;;-144.98;100.00;62585.19;4869251;29;19922;-74
2023/06/06 14:21:19;;;;;;;;;;;;;;;-144.98;100.00;62585.19;4880220;29;20002;-80
2023/06/06 14:24:26;;;;;;;;;;;;;;;-144.98;100.00;62585.19;4869212;29;19922;-79
2023/06/06 14:27:37;;;;;;;;;;;;;;;-144.98;100.00;62585.19;4880486;29;19923;-80
2023/06/06 14:30:41;;;;;;;;;;;;;;;-144.98;100.00;62585.19;4880318;29;19963;-80
2023/06/06 14:33:45;;;;;;;;;;;;;;;-144.98;100.00;62585.19;4879991;29;20363;-81
2023/06/06 14:36:49;;;;;;;;;;;;;;;-144.98;100.00;62585.19;4879895;29;19943;-80
2023/06/06 14:39:53;;;;;;;;;;;;;;;-144.98;100.00;62585.19;4880488;29;19999;-81
2023/06/06 14:42:57;;;;;;;;;;;;;;;-144.98;100.00;62585.19;4880079;29;20433;-80
2023/06/06 14:46:00;;;;;;;;;;;;;;;-144.98;100.00;62585.19;4880150;29;19927;-81
2023/06/06 14:49:03;;;;;;;;;;;;;;;-144.98;100.00;62585.19;4880044;29;19926;-81
2023/06/06 14:52:10;;;;;;;;;;;;;;;-144.98;100.00;62585.19;4880192;29;20340;-79
2023/06/06 14:55:14;;;;;;;;;;;;;;;-144.98;100.00;62585.19;4868409;29;20014;-80
2023/06/06 14:58:18;;;;;;;;;;;;;;;-144.98;100.00;62585.19;4879826;29;19926;-68
2023/06/06 15:01:22;;;;;;;;;;;;;;;-144.98;100.00;62585.19;4879785;29;19923;-68
2023/06/06 15:04:27;;;;;;;;;;;;;;;-144.98;100.00;62585.19;4879826;29;19922;-67
2023/06/06 15:07:30;;;;;;;;;;;;;;;-144.98;100.00;62585.19;4879781;29;19922;-67
2023/06/06 15:10:33;;;;;;;;;;;;;;;-144.98;100.00;62585.19;4879727;29;19966;-67
2023/06/06 15:13:36;;;;;;;;;;;;;;;-144.98;100.00;62585.19;4879622;29;19947;-67
2023/06/06 15:16:40;;;;;;;;;;;;;;;-144.98;100.00;62585.19;4879626;29;19927;-69
2023/06/06 15:19:43;;;;;;;;;;;;;;;-144.98;100.00;62585.19;4879610;29;19963;-68
2023/06/06 15:22:47;;;;;;;;;;;;;;;-144.98;100.00;62585.19;4879950;29;20383;-77
2023/06/06 15:25:50;;;;;;;;;;;;;;;-144.98;100.00;62585.19;4879653;29;19926;-78
2023/06/06 15:28:53;;;;;;;;;;;;;;;-144.98;100.00;62585.19;4879683;29;19971;-79
2023/06/06 15:31:58;;;;;;;;;;;;;;;-144.98;100.00;62585.19;4878766;29;19923;-79
2023/06/06 15:35:02;;;;;;;;;;;;;;;-144.98;100.00;62585.19;4879750;29;19926;-78
2023/06/06 15:38:05;;;;;;;;;;;;;;;-144.98;100.00;62585.19;4879842;29;20030;-79
2023/06/06 15:41:11;;;;;;;;;;;;;;;-144.98;100.00;62585.19;4879694;29;20284;-82
2023/06/06 15:44:20;;;;;;;;;;;;;;;-144.98;100.00;62585.19;4879464;29;20324;-77
2023/06/06 15:47:25;;;;;;;;;;;;;;;-144.98;100.00;62585.19;4879386;29;20028;-79
2023/06/06 15:50:28;;;;;;;;;;;;;;;-144.98;100.00;62585.19;4878862;29;19922;-77
2023/06/06 15:53:31;;;;;;;;;;;;;;;-144.98;100.00;62585.19;4879254;29;19970;-77
2023/06/06 15:56:33;;;;;;;;;;;;;;;-144.98;100.00;62585.19;4878810;29;19967;-78
2023/06/06 15:59:37;;;;;;;;;;;;;;;-144.98;100.00;62585.19;4879302;29;19922;-77
2023/06/06 16:02:40;;;;;;;;;;;;;;;-144.98;100.00;62585.19;4879385;29;19978;-77
2023/06/06 16:05:43;;;;;;;;;;;;;;;-144.98;100.00;62585.19;4879113;29;19941;-79
2023/06/06 16:08:46;;;;;;;;;;;;;;;-144.98;100.00;62585.19;4879154;29;20007;-76
2023/06/06 16:11:50;;;;;;;;;;;;;;;-144.98;100.00;62585.19;4879492;29;20105;-67
2023/06/06 16:14:54;;;;;;;;;;;;;;;-144.98;100.00;62585.19;4879248;29;20049;-66
2023/06/06 16:17:58;;;;;;;;;;;;;;;-144.98;100.00;62585.19;4879129;29;19927;-66
2023/06/06 16:21:01;;;;;;;;;;;;;;;-144.98;100.00;62585.19;4879071;29;19923;-66
2023/06/06 16:24:05;;;;;;;;;;;;;;;-144.98;100.00;62585.19;4879105;29;19968;-66
2023/06/06 16:27:09;;;;;;;;;;;;;;;-144.98;100.00;62585.19;4879035;29;20404;-66
2023/06/06 16:30:13;;;;;;;;;;;;;;;-144.98;100.00;62585.19;4879091;29;20003;-66
2023/06/06 16:33:16;;;;;;;;;;;;;;;-144.98;100.00;62585.19;4878962;29;19996;-66
2023/06/06 16:36:20;;;;;;;;;;;;;;;-144.98;100.00;62585.19;4878869;29;20038;-66
2023/06/06 16:39:24;;;;;;;;;;;;;;;-144.98;100.00;62585.19;4879273;29;20333;-67
2023/06/06 16:42:28;;;;;;;;;;;;;;;-144.98;100.00;62585.19;4868283;29;19931;-66
2023/06/06 16:45:31;;;;;;;;;;;;;;;-144.98;100.00;62585.19;4882189;29;19922;-66
2023/06/06 16:48:34;;;;;;;;;;;;;;;-144.98;100.00;62585.19;4882190;29;19922;-66
2023/06/06 16:51:40;;;;;;;;;;;;;;;-144.98;100.00;62585.19;4882284;29;19922;-67
2023/06/06 16:54:43;;;;;;;;;;;;;;;-144.98;100.00;62585.19;4881973;29;19926;-66
2023/06/06 16:57:46;;;;;;;;;;;;;;;-144.98;100.00;62585.19;4881961;29;19932;-67
2023/06/06 17:00:49;;;;;;;;;;;;;;;-144.98;100.00;62585.19;4881913;29;19922;-66
2023/06/06 17:03:52;;;;;;;;;;;;;;;-144.98;100.00;62585.19;4882193;29;19963;-67
2023/06/06 17:06:54;;;;;;;;;;;;;;;-144.98;100.00;62585.19;4881901;29;20308;-67
2023/06/06 17:09:58;;;;;;;;;;;;;;;-144.98;100.00;62585.19;4882155;29;19964;-77
2023/06/06 17:13:02;;;;;;;;;;;;;;;-144.98;100.00;62585.19;4881744;29;19923;-77
2023/06/06 17:16:07;;;;;;;;;;;;;;;-144.98;100.00;62585.19;4881718;29;19927;-77
2023/06/06 17:19:10;;;;;;;;;;;;;;;-144.98;100.00;62585.19;4881581;29;19961;-76
2023/06/06 17:22:13;;;;;;;;;;;;;;;-144.98;100.00;62585.19;4881686;29;20012;-77
2023/06/06 17:25:17;;;;;;;;;;;;;;;-144.98;100.00;62585.19;4870166;29;19967;-77
2023/06/06 17:28:21;;;;;;;;;;;;;;;-144.98;100.00;62585.19;4869990;29;19923;-83
2023/06/06 17:31:27;;;;;;;;;;;;;;;-144.98;100.00;62585.19;4881576;29;19923;-78
2023/06/06 17:34:30;;;;;;;;;;;;;;;-144.98;100.00;62585.19;4881204;29;20033;-81
2023/06/06 17:37:34;;;;;;;;;;;;;;;-144.98;100.00;62585.19;4881621;29;19938;-78
2023/06/06 17:40:38;;;;;;;;;;;;;;;-144.98;100.00;62585.19;4881434;29;19922;-79
2023/06/06 17:43:41;;;;;;;;;;;;;;;-144.98;100.00;62585.19;4881433;29;19923;-81
2023/06/06 17:46:50;;;;;;;;;;;;;;;-144.98;100.00;62585.19;4870480;29;19925;-78